createdAt,value
2019-01-09T00:00:05.393Z,22.83
2019-01-09T00:01:05.349Z,22.78
2019-01-09T00:02:05.391Z,22.80
2019-01-09T00:03:05.676Z,22.82
2019-01-09T00:04:05.679Z,22.80
2019-01-09T00:05:05.648Z,22.83
2019-01-09T00:06:05.663Z,22.75
2019-01-09T00:07:05.333Z,22.84
2019-01-09T00:08:05.297Z,22.75
2019-01-09T00:09:05.620Z,22.82
2019-01-09T00:10:05.609Z,22.78
2019-01-09T00:11:05.645Z,22.77
2019-01-09T00:12:05.259Z,22.77
2019-01-09T00:13:05.636Z,22.78
2019-01-09T00:14:05.243Z,22.80
2019-01-09T00:15:05.627Z,22.82
2019-01-09T00:16:05.615Z,22.82
2019-01-09T00:17:05.225Z,22.80
2019-01-09T00:18:05.550Z,22.82
2019-01-09T00:19:05.229Z,22.84
2019-01-09T00:20:05.569Z,22.82
2019-01-09T00:21:05.549Z,22.87
2019-01-09T00:22:05.560Z,22.82
2019-01-09T00:23:05.200Z,22.77
2019-01-09T00:24:05.548Z,22.74
2019-01-09T00:25:05.146Z,22.82
2019-01-09T00:26:05.184Z,22.78
2019-01-09T00:27:05.481Z,22.82
2019-01-09T00:28:05.120Z,22.78
2019-01-09T00:29:05.142Z,22.83
2019-01-09T00:30:05.464Z,22.80
2019-01-09T00:31:05.107Z,22.86
2019-01-09T00:32:05.094Z,22.78
2019-01-09T00:33:05.438Z,22.82
2019-01-09T00:34:05.409Z,22.77
2019-01-09T00:35:05.464Z,22.83
2019-01-09T00:36:05.094Z,22.84
2019-01-09T00:37:05.427Z,22.82
2019-01-09T00:38:05.378Z,22.82
2019-01-09T00:39:05.379Z,22.84
2019-01-09T00:40:05.066Z,22.77
2019-01-09T00:41:05.018Z,22.78
2019-01-09T00:42:05.010Z,22.80
2019-01-09T00:43:05.386Z,22.82
2019-01-09T00:44:05.365Z,22.82
2019-01-09T00:45:05.312Z,22.86
2019-01-09T00:46:05.345Z,22.82
2019-01-09T00:47:05.009Z,22.82
2019-01-09T00:48:05.320Z,22.80
2019-01-09T00:49:05.307Z,22.80
2019-01-09T00:50:04.988Z,22.82
2019-01-09T00:51:04.938Z,22.75
2019-01-09T00:52:05.284Z,22.80
2019-01-09T00:53:04.919Z,22.80
2019-01-09T00:54:05.306Z,22.78
2019-01-09T00:55:05.285Z,22.77
2019-01-09T00:56:05.283Z,22.84
2019-01-09T00:57:04.881Z,22.77
2019-01-09T00:58:05.254Z,22.75
2019-01-09T00:59:04.906Z,22.87
2019-01-09T01:00:05.216Z,22.82
2019-01-09T01:01:04.903Z,22.77
2019-01-09T01:02:04.838Z,22.83
2019-01-09T01:03:05.162Z,22.78
2019-01-09T01:04:04.864Z,22.82
2019-01-09T01:05:04.851Z,22.84
2019-01-09T01:06:05.169Z,22.86
2019-01-09T01:07:05.295Z,22.83
2019-01-09T01:08:05.200Z,22.80
2019-01-09T01:09:04.817Z,22.80
2019-01-09T01:10:05.116Z,22.78
2019-01-09T01:11:05.124Z,22.83
2019-01-09T01:12:04.757Z,22.82
2019-01-09T01:13:05.086Z,22.78
2019-01-09T01:14:05.142Z,22.82
2019-01-09T01:15:05.092Z,22.82
2019-01-09T01:16:05.087Z,22.82
2019-01-09T01:17:04.718Z,22.83
2019-01-09T01:18:04.715Z,22.80
2019-01-09T01:19:05.054Z,22.78
2019-01-09T01:20:04.704Z,22.80
2019-01-09T01:21:04.730Z,22.83
2019-01-09T01:22:04.676Z,22.83
2019-01-09T01:23:04.711Z,22.78
2019-01-09T01:24:04.695Z,22.74
2019-01-09T01:25:04.655Z,22.83
2019-01-09T01:26:05.020Z,22.78
2019-01-09T01:27:05.030Z,22.75
2019-01-09T01:28:04.666Z,22.80
2019-01-09T01:29:05.002Z,22.83
2019-01-09T01:30:04.662Z,22.86
2019-01-09T01:31:04.638Z,22.83
2019-01-09T01:32:04.973Z,22.84
2019-01-09T01:33:04.949Z,22.87
2019-01-09T01:34:04.585Z,22.94
2019-01-09T01:35:04.940Z,22.82
2019-01-09T01:36:04.560Z,22.86
2019-01-09T01:37:04.886Z,22.83
2019-01-09T01:38:04.907Z,22.94
2019-01-09T01:39:04.545Z,22.92
2019-01-09T01:40:04.534Z,22.94
2019-01-09T01:41:04.517Z,22.93
2019-01-09T01:42:04.885Z,22.92
2019-01-09T01:43:04.516Z,22.89
2019-01-09T01:44:04.870Z,22.87
2019-01-09T01:45:04.848Z,22.92
2019-01-09T01:46:04.490Z,22.92
2019-01-09T01:47:04.487Z,22.86
2019-01-09T01:48:04.497Z,22.96
2019-01-09T01:49:04.499Z,22.92
2019-01-09T01:50:04.445Z,22.92
2019-01-09T01:51:04.799Z,22.93
2019-01-09T01:52:04.835Z,22.93
2019-01-09T01:53:04.464Z,22.96
2019-01-09T01:54:04.763Z,22.93
2019-01-09T01:55:04.458Z,22.97
2019-01-09T01:56:04.755Z,22.99
2019-01-09T01:57:04.756Z,22.99
2019-01-09T01:58:04.731Z,22.99
2019-01-09T01:59:04.785Z,22.93
2019-01-09T02:00:04.726Z,22.97
2019-01-09T02:01:04.732Z,22.93
2019-01-09T02:02:04.733Z,22.93
2019-01-09T02:03:04.383Z,22.92
2019-01-09T02:04:04.345Z,22.96
2019-01-09T02:05:04.321Z,22.97
2019-01-09T02:06:04.374Z,22.97
2019-01-09T02:07:04.660Z,22.97
2019-01-09T02:08:04.327Z,23.05
2019-01-09T02:09:04.675Z,22.96
2019-01-09T02:10:04.676Z,22.97
2019-01-09T02:11:04.312Z,22.99
2019-01-09T02:12:04.630Z,22.96
2019-01-09T02:13:04.267Z,23.02
2019-01-09T02:14:04.257Z,22.96
2019-01-09T02:15:04.648Z,22.92
2019-01-09T02:16:04.575Z,23.02
2019-01-09T02:17:04.231Z,23.01
2019-01-09T02:18:04.219Z,23.04
2019-01-09T02:19:04.202Z,23.01
2019-01-09T02:20:04.551Z,23.01
2019-01-09T02:21:04.565Z,22.96
2019-01-09T02:22:04.233Z,22.97
2019-01-09T02:23:04.526Z,22.94
2019-01-09T02:24:04.561Z,22.96
2019-01-09T02:25:04.491Z,23.04
2019-01-09T02:26:04.556Z,22.96
2019-01-09T02:27:04.493Z,23.01
2019-01-09T02:28:04.180Z,22.96
2019-01-09T02:29:04.495Z,22.94
2019-01-09T02:30:04.497Z,22.96
2019-01-09T02:31:04.456Z,22.93
2019-01-09T02:32:04.488Z,22.94
2019-01-09T02:33:04.476Z,22.93
2019-01-09T02:34:04.496Z,22.99
2019-01-09T02:35:04.466Z,22.99
2019-01-09T02:36:13.084Z,22.93
2019-01-09T02:37:04.121Z,23.05
2019-01-09T02:38:04.417Z,23.01
2019-01-09T02:39:04.464Z,22.96
2019-01-09T02:40:04.045Z,22.89
2019-01-09T02:41:04.380Z,22.92
2019-01-09T02:42:04.360Z,22.96
2019-01-09T02:43:04.346Z,22.92
2019-01-09T02:44:04.335Z,22.92
2019-01-09T02:45:04.390Z,22.97
2019-01-09T02:46:03.989Z,23.02
2019-01-09T02:47:04.022Z,22.94
2019-01-09T02:48:04.363Z,22.93
2019-01-09T02:49:04.295Z,22.92
2019-01-09T02:50:04.299Z,22.97
2019-01-09T02:51:03.975Z,22.94
2019-01-09T02:52:03.943Z,22.99
2019-01-09T02:53:04.264Z,23.02
2019-01-09T02:54:04.312Z,23.02
2019-01-09T02:55:03.960Z,22.93
2019-01-09T02:56:04.294Z,22.99
2019-01-09T02:57:04.260Z,23.01
2019-01-09T02:58:04.297Z,22.96
2019-01-09T02:59:03.889Z,22.92
2019-01-09T03:00:03.905Z,23.01
2019-01-09T03:01:03.897Z,23.02
2019-01-09T03:02:03.898Z,23.01
2019-01-09T03:03:03.888Z,23.01
2019-01-09T03:04:03.889Z,23.04
2019-01-09T03:05:04.197Z,23.02
2019-01-09T03:06:04.223Z,23.04
2019-01-09T03:07:03.823Z,22.99
2019-01-09T03:08:04.199Z,23.08
2019-01-09T03:09:03.795Z,23.07
2019-01-09T03:10:04.141Z,22.99
2019-01-09T03:11:04.166Z,23.11
2019-01-09T03:12:03.788Z,22.99
2019-01-09T03:13:03.769Z,22.99
2019-01-09T03:14:03.810Z,23.07
2019-01-09T03:15:04.147Z,23.08
2019-01-09T03:16:04.093Z,23.01
2019-01-09T03:17:03.776Z,23.01
2019-01-09T03:18:04.079Z,23.08
2019-01-09T03:19:04.115Z,23.14
2019-01-09T03:20:04.066Z,23.11
2019-01-09T03:21:04.037Z,22.99
2019-01-09T03:22:04.044Z,23.07
2019-01-09T03:23:03.735Z,23.09
2019-01-09T03:24:03.720Z,23.11
2019-01-09T03:25:03.672Z,23.12
2019-01-09T03:26:03.701Z,23.08
2019-01-09T03:27:03.654Z,23.09
2019-01-09T03:28:03.643Z,23.08
2019-01-09T03:29:03.668Z,23.15
2019-01-09T03:30:03.672Z,23.11
2019-01-09T03:31:04.035Z,23.09
2019-01-09T03:32:03.903Z,23.08
2019-01-09T03:33:03.604Z,23.04
2019-01-09T03:34:04.002Z,23.11
2019-01-09T03:35:03.968Z,23.15
2019-01-09T03:36:03.939Z,23.15
2019-01-09T03:37:03.605Z,23.09
2019-01-09T03:38:03.568Z,23.08
2019-01-09T03:39:03.926Z,23.11
2019-01-09T03:40:03.588Z,23.12
2019-01-09T03:41:03.583Z,23.08
2019-01-09T03:42:03.538Z,23.08
2019-01-09T03:43:03.574Z,23.09
2019-01-09T03:44:03.906Z,23.08
2019-01-09T03:45:03.513Z,23.04
2019-01-09T03:46:03.526Z,23.08
2019-01-09T03:47:03.530Z,23.07
2019-01-09T03:48:03.532Z,23.08
2019-01-09T03:49:03.517Z,23.02
2019-01-09T03:50:03.801Z,23.09
2019-01-09T03:51:04.579Z,23.09
2019-01-09T03:52:03.810Z,23.12
2019-01-09T03:53:03.442Z,23.11
2019-01-09T03:54:03.856Z,23.08
2019-01-09T03:55:03.782Z,22.92
2019-01-09T03:56:03.412Z,22.97
2019-01-09T03:57:03.424Z,22.96
2019-01-09T03:58:03.785Z,22.92
2019-01-09T04:00:34.689Z,22.83
2019-01-09T04:01:34.452Z,22.83
2019-01-09T04:03:26.836Z,22.87
2019-01-09T04:04:27.149Z,22.86
2019-01-09T04:06:19.353Z,22.97
2019-01-09T04:07:19.141Z,22.94
2019-01-09T04:09:11.031Z,22.96
2019-01-09T04:10:11.388Z,22.92
2019-01-09T04:12:03.897Z,22.93
2019-01-09T04:13:03.687Z,23.01
2019-01-09T04:14:55.996Z,23.12
2019-01-09T04:15:56.019Z,23.11
2019-01-09T04:17:49.203Z,23.05
2019-01-09T04:18:48.004Z,23.04
2019-01-09T04:20:40.784Z,23.19
2019-01-09T04:21:40.694Z,23.15
2019-01-09T04:23:32.903Z,23.20
2019-01-09T04:24:32.529Z,23.17
2019-01-09T04:26:24.882Z,23.22
2019-01-09T04:27:24.864Z,23.24
2019-01-09T04:29:17.196Z,23.20
2019-01-09T04:30:17.167Z,23.05
2019-01-09T04:32:09.521Z,22.90
2019-01-09T04:38:14.581Z,21.67
2019-01-09T04:39:14.594Z,21.64
2019-01-09T04:41:07.633Z,21.54
2019-01-09T04:42:07.874Z,21.56
2019-01-09T04:44:01.423Z,21.63
2019-01-09T04:45:01.154Z,21.69
2019-01-09T04:46:54.522Z,21.66
2019-01-09T04:47:54.520Z,21.72
2019-01-09T04:49:47.167Z,21.76
2019-01-09T04:50:46.840Z,21.74
2019-01-09T04:52:38.721Z,21.79
2019-01-09T04:53:38.684Z,21.72
2019-01-09T04:55:31.267Z,21.67
2019-01-09T04:56:31.043Z,21.67
2019-01-09T04:58:23.384Z,21.91
2019-01-09T04:59:23.570Z,21.85
2019-01-09T05:01:16.978Z,21.81
2019-01-09T05:02:16.721Z,21.85
2019-01-09T05:04:10.078Z,21.83
2019-01-09T05:05:10.051Z,21.90
2019-01-09T05:07:03.626Z,21.88
2019-01-09T05:08:03.402Z,21.88
2019-01-09T05:09:56.750Z,21.85
2019-01-09T05:10:56.782Z,21.81
2019-01-09T05:12:50.385Z,21.88
2019-01-09T05:13:50.118Z,21.85
2019-01-09T05:15:43.399Z,21.85
2019-01-09T05:16:43.432Z,21.83
2019-01-09T05:18:36.982Z,21.81
2019-01-09T05:19:36.777Z,21.88
2019-01-09T05:21:30.111Z,21.81
2019-01-09T05:22:30.102Z,21.81
2019-01-09T05:24:23.649Z,21.75
2019-01-09T05:25:23.465Z,21.69
2019-01-09T05:27:16.830Z,21.67
2019-01-09T05:28:16.784Z,21.72
2019-01-09T05:30:10.316Z,21.71
2019-01-09T05:31:10.114Z,21.71
2019-01-09T05:33:03.477Z,21.72
2019-01-09T05:34:03.455Z,21.72
2019-01-09T05:35:55.988Z,21.63
2019-01-09T05:36:57.801Z,21.64
2019-01-09T05:38:49.181Z,21.60
2019-01-09T05:39:49.140Z,21.64
2019-01-09T05:41:42.709Z,21.72
2019-01-09T05:42:42.520Z,21.72
2019-01-09T05:44:35.852Z,21.71
2019-01-09T05:45:35.827Z,21.83
2019-01-09T05:47:29.403Z,21.91
2019-01-09T05:48:29.146Z,21.90
2019-01-09T05:50:22.527Z,21.99
2019-01-09T05:51:22.610Z,22.01
2019-01-09T05:53:16.067Z,22.07
2019-01-09T05:54:15.827Z,22.09
2019-01-09T05:56:09.214Z,22.13
2019-01-09T05:57:09.230Z,22.13
2019-01-09T05:59:02.732Z,22.09
2019-01-09T06:00:02.547Z,22.06
2019-01-09T06:01:55.834Z,22.22
2019-01-09T06:02:55.870Z,22.07
2019-01-09T06:04:48.416Z,22.25
2019-01-09T06:05:48.152Z,22.23
2019-01-09T06:07:40.571Z,22.22
2019-01-09T06:08:40.504Z,22.17
2019-01-09T06:10:34.093Z,22.22
2019-01-09T06:11:33.835Z,22.27
2019-01-09T06:13:27.244Z,22.25
2019-01-09T06:14:27.171Z,22.29
2019-01-09T06:16:20.801Z,22.28
2019-01-09T06:17:20.547Z,22.31
2019-01-09T06:19:13.900Z,22.23
2019-01-09T06:20:13.903Z,22.19
2019-01-09T06:22:06.439Z,22.28
2019-01-09T06:23:06.214Z,22.28
2019-01-09T06:24:59.622Z,22.31
2019-01-09T06:25:59.575Z,22.28
2019-01-09T06:27:53.154Z,22.28
2019-01-09T06:28:52.880Z,22.29
2019-01-09T06:30:46.259Z,22.31
2019-01-09T06:31:46.250Z,22.31
2019-01-09T06:33:39.929Z,22.29
2019-01-09T06:34:39.613Z,22.31
2019-01-09T06:36:32.021Z,22.25
2019-01-09T06:37:32.058Z,22.35
2019-01-09T06:39:25.627Z,22.25
2019-01-09T06:40:25.351Z,22.28
2019-01-09T06:42:18.712Z,22.31
2019-01-09T06:43:18.748Z,22.23
2019-01-09T06:45:12.335Z,22.34
2019-01-09T06:46:12.033Z,22.32
2019-01-09T06:48:06.171Z,22.34
2019-01-09T06:49:06.237Z,22.35
2019-01-09T06:50:59.825Z,22.35
2019-01-09T06:51:59.516Z,22.35
2019-01-09T06:53:52.390Z,22.38
2019-01-09T06:54:52.339Z,22.37
2019-01-09T06:56:46.483Z,22.27
2019-01-09T06:57:45.658Z,22.31
2019-01-09T06:59:39.047Z,22.35
2019-01-09T07:00:39.043Z,22.41
2019-01-09T07:02:37.230Z,22.41
2019-01-09T07:03:32.391Z,22.32
2019-01-09T07:05:25.732Z,22.37
2019-01-09T07:08:19.366Z,22.35
2019-01-09T07:09:19.061Z,22.43
2019-01-09T07:11:12.413Z,22.41
2019-01-09T07:12:12.359Z,22.39
2019-01-09T07:14:05.986Z,22.44
2019-01-09T07:15:11.331Z,22.43
2019-01-09T07:16:59.070Z,22.41
2019-01-09T07:17:59.070Z,22.43
2019-01-09T07:19:52.584Z,22.43
2019-01-09T07:20:52.360Z,22.43
2019-01-09T07:22:45.711Z,22.37
2019-01-09T07:23:45.729Z,22.37
2019-01-09T07:25:39.324Z,22.52
2019-01-09T07:26:39.058Z,22.47
2019-01-09T07:28:32.420Z,22.50
2019-01-09T07:29:32.409Z,22.46
2019-01-09T07:31:25.998Z,22.50
2019-01-09T07:32:25.722Z,22.47
2019-01-09T07:34:19.130Z,22.50
2019-01-09T07:35:19.125Z,22.47
2019-01-09T07:37:12.652Z,22.47
2019-01-09T07:38:12.443Z,22.54
2019-01-09T07:40:05.748Z,22.50
2019-01-09T07:41:05.759Z,22.49
2019-01-09T07:42:59.917Z,22.46
2019-01-09T07:43:59.101Z,22.53
2019-01-09T07:45:52.471Z,22.46
2019-01-09T07:46:52.465Z,22.52
2019-01-09T07:48:46.006Z,22.53
2019-01-09T07:49:45.782Z,22.53
2019-01-09T07:51:39.258Z,22.64
2019-01-09T07:52:39.129Z,22.65
2019-01-09T07:54:32.791Z,22.72
2019-01-09T07:55:32.457Z,22.75
2019-01-09T07:57:25.787Z,22.83
2019-01-09T07:58:25.756Z,22.80
2019-01-09T08:00:19.332Z,22.94
2019-01-09T08:01:19.131Z,22.93
2019-01-09T08:03:12.479Z,22.97
2019-01-09T08:04:12.577Z,22.99
2019-01-09T08:06:06.173Z,23.09
2019-01-09T08:07:05.802Z,23.11
2019-01-09T08:08:59.778Z,23.08
2019-01-09T08:09:59.170Z,22.99
2019-01-09T08:11:52.727Z,22.99
2019-01-09T08:12:52.495Z,23.09
2019-01-09T08:14:45.965Z,23.07
2019-01-09T08:15:45.821Z,23.08
2019-01-09T08:17:39.373Z,22.97
2019-01-09T08:18:39.175Z,23.12
2019-01-09T08:20:32.486Z,23.07
2019-01-09T08:21:32.478Z,23.08
2019-01-09T08:23:26.065Z,23.07
2019-01-09T08:24:25.853Z,23.08
2019-01-09T08:26:19.180Z,23.09
2019-01-09T08:27:19.215Z,23.12
2019-01-09T08:29:12.715Z,23.19
2019-01-09T08:30:12.541Z,23.15
2019-01-09T08:32:05.880Z,23.24
2019-01-09T08:33:05.862Z,23.15
2019-01-09T08:34:59.443Z,23.15
2019-01-09T08:35:59.172Z,23.22
2019-01-09T08:37:52.530Z,23.22
2019-01-09T08:38:52.501Z,23.24
2019-01-09T08:40:46.065Z,23.35
2019-01-09T08:41:45.907Z,23.32
2019-01-09T08:43:39.239Z,23.38
2019-01-09T08:44:39.235Z,23.31
2019-01-09T08:46:32.794Z,23.27
2019-01-09T08:47:32.543Z,23.38
2019-01-09T08:49:26.607Z,23.35
2019-01-09T08:50:26.591Z,23.39
2019-01-09T08:52:20.185Z,23.46
2019-01-09T08:53:19.926Z,23.43
2019-01-09T08:55:13.301Z,23.53
2019-01-09T08:56:13.269Z,23.45
2019-01-09T08:58:06.834Z,23.58
2019-01-09T08:59:06.564Z,23.55
2019-01-09T09:00:59.955Z,23.53
2019-01-09T09:02:00.274Z,23.49
2019-01-09T09:03:53.525Z,23.53
2019-01-09T09:04:53.285Z,23.58
2019-01-09T09:06:46.629Z,23.55
2019-01-09T09:07:46.644Z,23.53
2019-01-09T09:09:43.889Z,23.55
2019-01-09T09:10:39.955Z,23.46
2019-01-09T09:12:33.331Z,23.46
2019-01-09T09:13:33.301Z,23.39
2019-01-09T09:15:26.864Z,23.42
2019-01-09T09:16:26.688Z,23.43
2019-01-09T09:18:20.019Z,23.42
2019-01-09T09:19:19.985Z,23.55
2019-01-09T09:21:13.609Z,23.55
2019-01-09T09:22:13.359Z,23.53
2019-01-09T09:24:06.726Z,23.53
2019-01-09T09:25:06.650Z,23.53
2019-01-09T09:27:00.262Z,23.58
2019-01-09T09:27:59.990Z,23.62
2019-01-09T09:29:53.380Z,23.57
2019-01-09T09:30:53.359Z,23.55
2019-01-09T09:32:46.964Z,23.61
2019-01-09T09:33:46.692Z,23.58
2019-01-09T09:35:40.023Z,23.60
2019-01-09T09:36:40.089Z,23.64
2019-01-09T09:38:33.623Z,23.68
2019-01-09T09:39:33.418Z,23.67
2019-01-09T09:41:26.741Z,23.64
2019-01-09T09:42:26.704Z,23.71
2019-01-09T09:44:20.298Z,23.72
2019-01-09T09:45:20.076Z,23.75
2019-01-09T09:47:13.416Z,23.76
2019-01-09T09:48:13.429Z,23.80
2019-01-09T09:50:07.014Z,23.76
2019-01-09T09:51:06.755Z,23.82
2019-01-09T09:53:00.127Z,23.79
2019-01-09T09:54:00.123Z,23.80
2019-01-09T09:55:53.679Z,23.77
2019-01-09T09:56:53.400Z,23.86
2019-01-09T09:58:46.769Z,23.85
2019-01-09T09:59:46.775Z,23.85
2019-01-09T10:01:40.393Z,23.85
2019-01-09T10:02:40.149Z,23.87
2019-01-09T10:04:33.579Z,23.89
2019-01-09T10:05:33.453Z,23.94
2019-01-09T10:07:30.480Z,23.89
2019-01-09T10:08:29.485Z,23.89
2019-01-09T10:10:20.149Z,23.97
2019-01-09T10:11:20.129Z,23.94
2019-01-09T10:13:14.060Z,23.95
2019-01-09T10:14:13.494Z,23.90
2019-01-09T10:16:06.855Z,23.85
2019-01-09T10:17:06.878Z,23.87
2019-01-09T10:19:00.383Z,23.83
2019-01-09T10:20:00.180Z,23.83
2019-01-09T10:21:54.155Z,23.76
2019-01-09T10:22:53.773Z,23.82
2019-01-09T10:24:47.073Z,23.82
2019-01-09T10:25:46.845Z,23.85
2019-01-09T10:27:40.195Z,23.77
2019-01-09T10:28:40.202Z,23.82
2019-01-09T10:30:33.738Z,23.86
2019-01-09T10:31:33.526Z,23.79
2019-01-09T10:33:26.882Z,23.82
2019-01-09T10:34:26.859Z,23.86
2019-01-09T10:36:20.426Z,23.86
2019-01-09T10:37:20.248Z,23.77
2019-01-09T10:39:13.064Z,23.85
2019-01-09T10:40:13.046Z,23.85
2019-01-09T10:42:08.115Z,23.85
2019-01-09T10:43:06.451Z,23.82
2019-01-09T10:44:59.750Z,23.83
2019-01-09T10:45:59.728Z,23.82
2019-01-09T10:47:53.347Z,23.85
2019-01-09T10:48:53.121Z,23.85
2019-01-09T10:50:47.059Z,23.85
2019-01-09T10:51:47.037Z,23.90
2019-01-09T10:53:40.617Z,23.86
2019-01-09T10:54:40.426Z,23.82
2019-01-09T10:56:33.721Z,23.86
2019-01-09T10:57:33.733Z,23.87
2019-01-09T10:59:26.804Z,23.85
2019-01-09T11:00:26.641Z,23.86
2019-01-09T11:02:19.996Z,23.86
2019-01-09T11:03:19.936Z,23.87
2019-01-09T11:05:13.517Z,23.89
2019-01-09T11:06:14.494Z,23.94
2019-01-09T11:08:06.609Z,23.86
2019-01-09T11:09:06.619Z,23.89
2019-01-09T11:11:04.685Z,23.90
2019-01-09T11:11:59.957Z,23.87
2019-01-09T11:13:53.290Z,23.92
2019-01-09T11:14:53.329Z,23.92
2019-01-09T11:16:46.863Z,23.92
2019-01-09T11:17:46.647Z,23.92
2019-01-09T11:19:39.972Z,23.85
2019-01-09T11:20:39.999Z,23.87
2019-01-09T11:22:33.047Z,23.92
2019-01-09T11:23:32.851Z,23.85
2019-01-09T11:25:26.197Z,23.85
2019-01-09T11:26:26.170Z,23.80
2019-01-09T11:28:19.759Z,23.87
2019-01-09T11:29:19.519Z,23.92
2019-01-09T11:31:12.907Z,23.85
2019-01-09T11:32:12.901Z,23.94
2019-01-09T11:34:06.441Z,23.90
2019-01-09T11:35:06.228Z,23.94
2019-01-09T11:36:59.558Z,23.97
2019-01-09T11:37:59.578Z,23.89
2019-01-09T11:38:59.507Z,23.94
2019-01-09T11:39:59.520Z,23.90
2019-01-09T11:40:59.528Z,23.89
2019-01-09T11:41:59.523Z,23.87
2019-01-09T11:42:59.505Z,23.89
2019-01-09T11:43:59.519Z,23.87
2019-01-09T11:44:59.522Z,23.92
2019-01-09T11:45:59.490Z,23.89
2019-01-09T11:46:59.515Z,23.94
2019-01-09T11:47:59.501Z,23.95
2019-01-09T11:48:59.447Z,23.92
2019-01-09T11:49:59.426Z,23.94
2019-01-09T11:50:59.464Z,23.94
2019-01-09T11:51:59.418Z,23.92
2019-01-09T11:52:59.422Z,23.92
2019-01-09T11:53:59.432Z,23.94
2019-01-09T11:54:59.448Z,23.94
2019-01-09T11:55:59.400Z,23.90
2019-01-09T11:56:59.393Z,23.98
2019-01-09T11:57:59.469Z,23.94
2019-01-09T11:58:59.392Z,24.00
2019-01-09T11:59:59.366Z,24.01
2019-01-09T12:00:59.423Z,23.98
2019-01-09T12:01:59.379Z,23.98
2019-01-09T12:02:59.385Z,23.98
2019-01-09T12:03:59.391Z,23.97
2019-01-09T12:05:01.087Z,23.97
2019-01-09T12:05:59.317Z,23.94
2019-01-09T12:06:59.327Z,23.97
2019-01-09T12:07:59.314Z,24.04
2019-01-09T12:09:04.521Z,24.02
2019-01-09T12:09:59.296Z,23.98
2019-01-09T12:10:59.339Z,23.94
2019-01-09T12:11:59.324Z,23.95
2019-01-09T12:12:59.384Z,24.02
2019-01-09T12:13:59.314Z,23.94
2019-01-09T12:14:59.259Z,24.02
2019-01-09T12:16:07.771Z,23.97
2019-01-09T12:16:59.286Z,24.00
2019-01-09T12:17:59.288Z,24.04
2019-01-09T12:18:59.232Z,23.97
2019-01-09T12:19:59.258Z,24.02
2019-01-09T12:20:59.231Z,24.01
2019-01-09T12:21:59.204Z,24.04
2019-01-09T12:22:59.241Z,24.02
2019-01-09T12:23:59.219Z,24.02
2019-01-09T12:24:59.186Z,24.07
2019-01-09T12:25:59.173Z,24.07
2019-01-09T12:26:59.195Z,24.07
2019-01-09T12:27:59.199Z,24.01
2019-01-09T12:28:59.154Z,24.02
2019-01-09T12:29:59.148Z,24.00
2019-01-09T12:30:59.178Z,24.00
2019-01-09T12:31:59.163Z,24.04
2019-01-09T12:32:59.128Z,24.01
2019-01-09T12:33:59.157Z,24.04
2019-01-09T12:34:59.139Z,24.04
2019-01-09T12:35:59.123Z,24.04
2019-01-09T12:36:59.146Z,24.07
2019-01-09T12:37:59.066Z,24.00
2019-01-09T12:38:59.084Z,24.13
2019-01-09T12:39:59.116Z,23.98
2019-01-09T12:40:59.104Z,24.04
2019-01-09T12:41:59.086Z,24.01
2019-01-09T12:42:59.034Z,24.01
2019-01-09T12:43:59.028Z,24.01
2019-01-09T12:44:59.367Z,24.08
2019-01-09T12:45:59.019Z,24.08
2019-01-09T12:46:59.033Z,24.05
2019-01-09T12:47:59.032Z,23.97
2019-01-09T12:48:59.033Z,24.05
2019-01-09T12:49:59.006Z,24.02
2019-01-09T12:50:59.001Z,24.00
2019-01-09T12:51:59.027Z,24.00
2019-01-09T12:52:59.015Z,24.05
2019-01-09T12:53:58.966Z,24.12
2019-01-09T12:54:59.013Z,24.08
2019-01-09T12:55:58.964Z,23.92
2019-01-09T12:56:58.967Z,24.07
2019-01-09T12:57:58.944Z,23.98
2019-01-09T12:58:58.915Z,24.08
2019-01-09T12:59:58.921Z,24.08
2019-01-09T13:00:58.925Z,24.02
2019-01-09T13:01:58.915Z,24.07
2019-01-09T13:02:58.915Z,24.02
2019-01-09T13:03:58.924Z,24.08
2019-01-09T13:04:58.930Z,24.14
2019-01-09T13:05:58.904Z,24.16
2019-01-09T13:06:58.896Z,24.10
2019-01-09T13:07:58.858Z,24.14
2019-01-09T13:08:58.857Z,24.16
2019-01-09T13:09:58.888Z,24.20
2019-01-09T13:10:58.866Z,24.14
2019-01-09T13:11:58.850Z,24.10
2019-01-09T13:12:58.829Z,24.12
2019-01-09T13:13:58.824Z,24.14
2019-01-09T13:14:58.793Z,24.10
2019-01-09T13:15:58.817Z,24.12
2019-01-09T13:16:58.769Z,24.12
2019-01-09T13:17:58.762Z,24.13
2019-01-09T13:18:58.767Z,24.08
2019-01-09T13:19:58.772Z,24.14
2019-01-09T13:20:58.805Z,24.13
2019-01-09T13:21:58.762Z,24.14
2019-01-09T13:22:58.792Z,24.14
2019-01-09T13:23:58.732Z,24.17
2019-01-09T13:24:59.117Z,24.20
2019-01-09T13:25:58.696Z,24.10
2019-01-09T13:26:58.707Z,24.12
2019-01-09T13:27:58.695Z,24.07
2019-01-09T13:28:58.709Z,24.17
2019-01-09T13:29:58.701Z,24.12
2019-01-09T13:30:58.682Z,24.10
2019-01-09T13:31:58.704Z,24.13
2019-01-09T13:32:58.649Z,24.19
2019-01-09T13:33:58.651Z,24.05
2019-01-09T13:34:58.659Z,24.12
2019-01-09T13:35:58.631Z,24.12
2019-01-09T13:36:58.678Z,24.10
2019-01-09T13:37:58.663Z,24.12
2019-01-09T13:38:58.620Z,24.14
2019-01-09T13:39:58.671Z,24.10
2019-01-09T13:40:58.623Z,24.10
2019-01-09T13:41:58.613Z,24.24
2019-01-09T13:42:58.637Z,24.12
2019-01-09T13:43:58.563Z,24.12
2019-01-09T13:44:58.565Z,24.07
2019-01-09T13:45:59.619Z,24.16
2019-01-09T13:46:58.577Z,24.19
2019-01-09T13:47:58.539Z,24.22
2019-01-09T13:48:58.567Z,24.22
2019-01-09T13:49:58.548Z,24.16
2019-01-09T13:50:58.578Z,24.19
2019-01-09T13:51:58.525Z,24.05
2019-01-09T13:52:58.531Z,24.23
2019-01-09T13:53:58.518Z,24.24
2019-01-09T13:54:58.513Z,24.17
2019-01-09T13:55:58.527Z,24.27
2019-01-09T13:56:58.492Z,24.12
2019-01-09T13:57:58.522Z,24.27
2019-01-09T13:58:58.515Z,24.17
2019-01-09T13:59:58.463Z,24.14
2019-01-09T14:00:58.438Z,24.05
2019-01-09T14:01:58.483Z,24.10
2019-01-09T14:02:58.491Z,24.12
2019-01-09T14:03:58.470Z,24.20
2019-01-09T14:04:58.409Z,24.16
2019-01-09T14:05:58.414Z,24.23
2019-01-09T14:06:58.428Z,24.14
2019-01-09T14:07:58.415Z,24.24
2019-01-09T14:08:58.410Z,24.13
2019-01-09T14:09:58.385Z,24.17
2019-01-09T14:10:58.427Z,24.20
2019-01-09T14:11:58.378Z,24.14
2019-01-09T14:12:58.384Z,24.23
2019-01-09T14:13:58.403Z,24.20
2019-01-09T14:14:58.326Z,24.26
2019-01-09T14:15:58.347Z,24.16
2019-01-09T14:16:58.318Z,24.12
2019-01-09T14:17:58.350Z,24.20
2019-01-09T14:18:58.348Z,24.20
2019-01-09T14:19:58.367Z,24.12
2019-01-09T14:20:58.337Z,24.19
2019-01-09T14:21:58.310Z,24.23
2019-01-09T14:22:58.323Z,24.14
2019-01-09T14:23:58.270Z,24.23
2019-01-09T14:24:58.276Z,24.19
2019-01-09T14:25:58.265Z,24.17
2019-01-09T14:26:58.303Z,24.20
2019-01-09T14:27:58.257Z,24.20
2019-01-09T14:28:58.272Z,24.13
2019-01-09T14:29:58.278Z,24.14
2019-01-09T14:30:58.265Z,24.22
2019-01-09T14:31:58.233Z,24.17
2019-01-09T14:32:58.219Z,24.22
2019-01-09T14:33:58.188Z,24.16
2019-01-09T14:34:59.870Z,24.14
2019-01-09T14:35:58.738Z,24.17
2019-01-09T14:36:58.170Z,24.16
2019-01-09T14:37:58.161Z,24.17
2019-01-09T14:38:58.175Z,24.17
2019-01-09T14:39:58.201Z,24.26
2019-01-09T14:40:58.160Z,24.14
2019-01-09T14:41:58.166Z,24.12
2019-01-09T14:42:58.147Z,24.27
2019-01-09T14:43:58.137Z,24.08
2019-01-09T14:44:58.141Z,24.20
2019-01-09T14:45:58.114Z,24.24
2019-01-09T14:46:58.108Z,24.14
2019-01-09T14:47:58.101Z,24.17
2019-01-09T14:48:58.067Z,24.17
2019-01-09T14:49:58.115Z,24.17
2019-01-09T14:50:58.115Z,24.17
2019-01-09T14:51:58.061Z,24.12
2019-01-09T14:52:58.098Z,24.19
2019-01-09T14:53:58.046Z,24.27
2019-01-09T14:54:58.045Z,24.17
2019-01-09T14:55:58.009Z,24.12
2019-01-09T14:56:58.032Z,24.19
2019-01-09T14:57:58.006Z,24.19
2019-01-09T14:58:58.018Z,24.14
2019-01-09T14:59:58.006Z,24.12
2019-01-09T15:00:58.020Z,24.16
2019-01-09T15:01:57.994Z,24.17
2019-01-09T15:02:57.952Z,24.16
2019-01-09T15:03:57.994Z,24.27
2019-01-09T15:04:57.965Z,24.17
2019-01-09T15:05:57.949Z,24.17
2019-01-09T15:06:57.954Z,24.22
2019-01-09T15:07:57.947Z,24.19
2019-01-09T15:08:57.935Z,24.12
2019-01-09T15:09:57.922Z,24.13
2019-01-09T15:10:57.919Z,24.24
2019-01-09T15:11:57.934Z,24.27
2019-01-09T15:12:57.907Z,24.19
2019-01-09T15:13:57.929Z,24.27
2019-01-09T15:14:57.923Z,24.19
2019-01-09T15:15:57.903Z,24.19
2019-01-09T15:16:57.886Z,24.13
2019-01-09T15:17:57.863Z,24.24